sensor_id;sensor_type;location;lat;lon;timestamp;P1;durP1;ratioP1;P2;durP2;ratioP2
1220;SDS011;600;48.044;7.878;2022-07-18T06:38:05;3.70;;;3.40;;
1220;SDS011;600;48.044;7.878;2022-07-18T06:40:32;5.67;;;2.87;;
1220;SDS011;600;48.044;7.878;2022-07-18T06:42:59;3.53;;;3.20;;
1220;SDS011;600;48.044;7.878;2022-07-18T06:45:25;4.10;;;3.73;;
1220;SDS011;600;48.044;7.878;2022-07-18T06:47:52;4.10;;;3.70;;
1220;SDS011;600;48.044;7.878;2022-07-18T06:50:19;3.30;;;3.10;;
1220;SDS011;600;48.044;7.878;2022-07-18T06:52:46;3.50;;;3.20;;
1220;SDS011;600;48.044;7.878;2022-07-18T06:55:14;3.50;;;3.20;;
1220;SDS011;600;48.044;7.878;2022-07-18T06:57:41;4.13;;;3.07;;
1220;SDS011;600;48.044;7.878;2022-07-18T07:00:09;3.47;;;3.17;;
1220;SDS011;600;48.044;7.878;2022-07-18T07:02:41;3.13;;;2.93;;
1220;SDS011;600;48.044;7.878;2022-07-18T07:05:10;3.37;;;3.10;;
1220;SDS011;600;48.044;7.878;2022-07-18T07:07:37;3.33;;;3.07;;
1220;SDS011;600;48.044;7.878;2022-07-18T07:10:04;3.40;;;3.20;;
1220;SDS011;600;48.044;7.878;2022-07-18T07:12:38;2.97;;;2.77;;
1220;SDS011;600;48.044;7.878;2022-07-18T07:15:06;3.07;;;2.87;;
1220;SDS011;600;48.044;7.878;2022-07-18T07:17:35;2.57;;;2.47;;
1220;SDS011;600;48.044;7.878;2022-07-18T07:20:02;3.27;;;2.97;;
1220;SDS011;600;48.044;7.878;2022-07-18T07:22:31;3.13;;;2.90;;
1220;SDS011;600;48.044;7.878;2022-07-18T07:24:57;3.10;;;2.90;;
1220;SDS011;600;48.044;7.878;2022-07-18T07:27:24;3.37;;;3.17;;
1220;SDS011;600;48.044;7.878;2022-07-18T07:29:52;3.30;;;2.87;;
1220;SDS011;600;48.044;7.878;2022-07-18T07:32:19;5.47;;;3.23;;
1220;SDS011;600;48.044;7.878;2022-07-18T07:34:46;3.00;;;2.80;;
1220;SDS011;600;48.044;7.878;2022-07-18T07:37:12;3.60;;;3.30;;
1220;SDS011;600;48.044;7.878;2022-07-18T07:39:39;3.40;;;3.10;;
1220;SDS011;600;48.044;7.878;2022-07-18T07:42:06;2.70;;;2.50;;
1220;SDS011;600;48.044;7.878;2022-07-18T07:44:33;3.20;;;2.90;;
1220;SDS011;600;48.044;7.878;2022-07-18T07:47:01;2.60;;;2.50;;
1220;SDS011;600;48.044;7.878;2022-07-18T07:49:28;3.57;;;3.27;;
1220;SDS011;600;48.044;7.878;2022-07-18T07:51:58;3.20;;;2.90;;
1220;SDS011;600;48.044;7.878;2022-07-18T07:54:25;2.80;;;2.60;;
1220;SDS011;600;48.044;7.878;2022-07-18T07:56:52;3.33;;;3.13;;
1220;SDS011;600;48.044;7.878;2022-07-18T07:59:19;3.20;;;3.00;;
1220;SDS011;600;48.044;7.878;2022-07-18T08:01:45;3.23;;;3.03;;
1220;SDS011;600;48.044;7.878;2022-07-18T08:04:13;3.07;;;2.70;;
1220;SDS011;600;48.044;7.878;2022-07-18T08:06:40;3.30;;;3.00;;
1220;SDS011;600;48.044;7.878;2022-07-18T08:09:07;3.57;;;3.20;;
1220;SDS011;600;48.044;7.878;2022-07-18T08:11:34;2.87;;;2.67;;
1220;SDS011;600;48.044;7.878;2022-07-18T08:14:01;3.73;;;3.43;;
1220;SDS011;600;48.044;7.878;2022-07-18T08:16:27;3.10;;;2.87;;
1220;SDS011;600;48.044;7.878;2022-07-18T08:18:54;3.20;;;2.90;;
1220;SDS011;600;48.044;7.878;2022-07-18T08:21:22;3.20;;;3.00;;
1220;SDS011;600;48.044;7.878;2022-07-18T08:23:49;3.53;;;3.27;;
1220;SDS011;600;48.044;7.878;2022-07-18T08:26:16;3.00;;;2.80;;
1220;SDS011;600;48.044;7.878;2022-07-18T08:28:42;3.87;;;3.30;;
1220;SDS011;600;48.044;7.878;2022-07-18T08:31:09;3.10;;;2.90;;
1220;SDS011;600;48.044;7.878;2022-07-18T08:33:36;3.20;;;3.00;;
1220;SDS011;600;48.044;7.878;2022-07-18T08:36:03;3.43;;;3.00;;
1220;SDS011;600;48.044;7.878;2022-07-18T08:38:31;3.43;;;3.13;;
1220;SDS011;600;48.044;7.878;2022-07-18T08:40:58;3.50;;;3.20;;
1220;SDS011;600;48.044;7.878;2022-07-18T08:43:27;3.33;;;3.03;;
1220;SDS011;600;48.044;7.878;2022-07-18T08:45:54;3.10;;;2.90;;
1220;SDS011;600;48.044;7.878;2022-07-18T08:48:22;5.43;;;3.30;;
1220;SDS011;600;48.044;7.878;2022-07-18T08:50:49;3.00;;;2.70;;
1220;SDS011;600;48.044;7.878;2022-07-18T08:53:17;3.40;;;3.10;;
1220;SDS011;600;48.044;7.878;2022-07-18T08:55:46;4.27;;;3.27;;
1220;SDS011;600;48.044;7.878;2022-07-18T08:58:14;4.50;;;3.20;;
1220;SDS011;600;48.044;7.878;2022-07-18T09:00:42;6.00;;;3.23;;
1220;SDS011;600;48.044;7.878;2022-07-18T09:03:09;3.57;;;3.27;;
1220;SDS011;600;48.044;7.878;2022-07-18T09:05:37;2.97;;;2.77;;
1220;SDS011;600;48.044;7.878;2022-07-18T09:08:12;3.37;;;3.07;;
1220;SDS011;600;48.044;7.878;2022-07-18T09:10:49;2.97;;;2.77;;
1220;SDS011;600;48.044;7.878;2022-07-18T09:13:16;3.07;;;2.80;;
1220;SDS011;600;48.044;7.878;2022-07-18T09:15:57;3.40;;;3.20;;
1220;SDS011;600;48.044;7.878;2022-07-18T09:18:28;3.70;;;3.10;;
1220;SDS011;600;48.044;7.878;2022-07-18T09:20:59;3.13;;;2.93;;
1220;SDS011;600;48.044;7.878;2022-07-18T09:23:27;4.60;;;2.77;;
1220;SDS011;600;48.044;7.878;2022-07-18T09:25:56;2.80;;;2.60;;
1220;SDS011;600;48.044;7.878;2022-07-18T09:28:24;2.90;;;2.70;;
1220;SDS011;600;48.044;7.878;2022-07-18T09:30:52;3.17;;;2.90;;
1220;SDS011;600;48.044;7.878;2022-07-18T09:33:19;3.20;;;3.00;;
1220;SDS011;600;48.044;7.878;2022-07-18T09:35:47;5.47;;;3.03;;
1220;SDS011;600;48.044;7.878;2022-07-18T09:38:15;3.73;;;3.20;;
1220;SDS011;600;48.044;7.878;2022-07-18T09:40:44;3.00;;;2.70;;
1220;SDS011;600;48.044;7.878;2022-07-18T09:43:13;3.13;;;2.87;;
1220;SDS011;600;48.044;7.878;2022-07-18T09:45:42;3.00;;;2.80;;
1220;SDS011;600;48.044;7.878;2022-07-18T09:48:12;2.97;;;2.60;;
1220;SDS011;600;48.044;7.878;2022-07-18T09:50:41;5.33;;;3.00;;
1220;SDS011;600;48.044;7.878;2022-07-18T09:53:12;3.20;;;3.00;;
1220;SDS011;600;48.044;7.878;2022-07-18T09:55:41;3.20;;;2.73;;
1220;SDS011;600;48.044;7.878;2022-07-18T09:58:09;3.10;;;2.80;;
1220;SDS011;600;48.044;7.878;2022-07-18T10:00:38;3.10;;;2.90;;
1220;SDS011;600;48.044;7.878;2022-07-18T10:03:06;2.93;;;2.73;;
1220;SDS011;600;48.044;7.878;2022-07-18T10:05:34;2.63;;;2.40;;
1220;SDS011;600;48.044;7.878;2022-07-18T10:08:03;3.30;;;2.90;;
1220;SDS011;600;48.044;7.878;2022-07-18T10:10:32;2.73;;;2.53;;
1220;SDS011;600;48.044;7.878;2022-07-18T10:12:59;2.80;;;2.47;;
1220;SDS011;600;48.044;7.878;2022-07-18T10:15:28;3.20;;;2.90;;
1220;SDS011;600;48.044;7.878;2022-07-18T10:17:58;4.00;;;3.00;;
1220;SDS011;600;48.044;7.878;2022-07-18T10:20:26;3.03;;;2.83;;
1220;SDS011;600;48.044;7.878;2022-07-18T10:22:58;3.20;;;3.00;;
1220;SDS011;600;48.044;7.878;2022-07-18T10:25:28;3.07;;;2.87;;
1220;SDS011;600;48.044;7.878;2022-07-18T10:28:01;3.90;;;3.23;;
1220;SDS011;600;48.044;7.878;2022-07-18T10:30:31;3.37;;;3.07;;
1220;SDS011;600;48.044;7.878;2022-07-18T10:33:02;3.40;;;3.10;;
1220;SDS011;600;48.044;7.878;2022-07-18T10:38:25;3.30;;;3.10;;
1220;SDS011;600;48.044;7.878;2022-07-18T10:41:06;2.97;;;2.77;;
1220;SDS011;600;48.044;7.878;2022-07-18T10:43:44;3.93;;;3.13;;
1220;SDS011;600;48.044;7.878;2022-07-18T10:46:11;3.50;;;2.70;;
1220;SDS011;600;48.044;7.878;2022-07-18T10:48:53;3.03;;;2.77;;
1220;SDS011;600;48.044;7.878;2022-07-18T10:51:28;3.27;;;3.03;;
1220;SDS011;600;48.044;7.878;2022-07-18T10:54:03;2.60;;;2.40;;
1220;SDS011;600;48.044;7.878;2022-07-18T10:59:36;3.33;;;2.90;;
1220;SDS011;600;48.044;7.878;2022-07-18T11:02:29;2.70;;;2.50;;
1220;SDS011;600;48.044;7.878;2022-07-18T11:05:02;3.47;;;2.93;;
1220;SDS011;600;48.044;7.878;2022-07-18T11:07:29;3.37;;;3.17;;
1220;SDS011;600;48.044;7.878;2022-07-18T11:09:56;4.87;;;3.10;;
1220;SDS011;600;48.044;7.878;2022-07-18T11:12:24;2.87;;;2.67;;
1220;SDS011;600;48.044;7.878;2022-07-18T11:17:57;3.23;;;2.70;;
1220;SDS011;600;48.044;7.878;2022-07-18T11:20:27;2.77;;;2.57;;
1220;SDS011;600;48.044;7.878;2022-07-18T11:22:56;2.80;;;2.60;;
1220;SDS011;600;48.044;7.878;2022-07-18T11:25:24;2.80;;;2.53;;
1220;SDS011;600;48.044;7.878;2022-07-18T11:27:52;3.00;;;2.63;;
1220;SDS011;600;48.044;7.878;2022-07-18T11:30:20;3.27;;;2.97;;
1220;SDS011;600;48.044;7.878;2022-07-18T11:32:48;4.43;;;4.00;;
1220;SDS011;600;48.044;7.878;2022-07-18T11:35:20;3.00;;;2.70;;
1220;SDS011;600;48.044;7.878;2022-07-18T11:37:50;4.00;;;2.60;;
1220;SDS011;600;48.044;7.878;2022-07-18T11:40:17;2.60;;;2.40;;
1220;SDS011;600;48.044;7.878;2022-07-18T11:42:44;2.40;;;2.20;;
1220;SDS011;600;48.044;7.878;2022-07-18T11:45:13;2.83;;;2.63;;
1220;SDS011;600;48.044;7.878;2022-07-18T11:47:48;3.13;;;2.63;;
1220;SDS011;600;48.044;7.878;2022-07-18T11:50:16;2.50;;;2.30;;
1220;SDS011;600;48.044;7.878;2022-07-18T11:52:44;3.50;;;2.33;;
1220;SDS011;600;48.044;7.878;2022-07-18T11:55:13;2.67;;;2.47;;
1220;SDS011;600;48.044;7.878;2022-07-18T11:57:40;5.50;;;2.50;;
1220;SDS011;600;48.044;7.878;2022-07-18T12:00:17;2.73;;;2.53;;
1220;SDS011;600;48.044;7.878;2022-07-18T12:02:44;2.83;;;2.63;;
1220;SDS011;600;48.044;7.878;2022-07-18T12:05:11;2.60;;;2.17;;
1220;SDS011;600;48.044;7.878;2022-07-18T12:07:38;2.90;;;2.70;;
1220;SDS011;600;48.044;7.878;2022-07-18T12:10:16;2.67;;;2.47;;
1220;SDS011;600;48.044;7.878;2022-07-18T12:12:43;2.80;;;2.60;;
1220;SDS011;600;48.044;7.878;2022-07-18T12:15:10;2.67;;;2.47;;
1220;SDS011;600;48.044;7.878;2022-07-18T12:17:42;2.50;;;2.30;;
1220;SDS011;600;48.044;7.878;2022-07-18T12:20:11;3.13;;;2.97;;
1220;SDS011;600;48.044;7.878;2022-07-18T12:28:26;2.57;;;2.37;;
1220;SDS011;600;48.044;7.878;2022-07-18T12:30:53;2.07;;;1.90;;
1220;SDS011;600;48.044;7.878;2022-07-18T12:33:21;2.80;;;2.50;;
1220;SDS011;600;48.044;7.878;2022-07-18T12:39:24;4.57;;;2.30;;
1220;SDS011;600;48.044;7.878;2022-07-18T12:44:54;2.90;;;2.60;;
1220;SDS011;600;48.044;7.878;2022-07-18T12:47:20;2.80;;;2.60;;
1220;SDS011;600;48.044;7.878;2022-07-18T12:49:47;2.50;;;2.10;;
1220;SDS011;600;48.044;7.878;2022-07-18T12:52:14;2.70;;;2.27;;
1220;SDS011;600;48.044;7.878;2022-07-18T12:54:40;2.33;;;2.23;;
1220;SDS011;600;48.044;7.878;2022-07-18T12:57:07;3.00;;;2.00;;
1220;SDS011;600;48.044;7.878;2022-07-18T12:59:35;2.90;;;2.37;;
1220;SDS011;600;48.044;7.878;2022-07-18T13:02:02;2.40;;;2.30;;
1220;SDS011;600;48.044;7.878;2022-07-18T13:04:29;2.73;;;2.53;;
1220;SDS011;600;48.044;7.878;2022-07-18T13:06:56;2.70;;;2.50;;
1220;SDS011;600;48.044;7.878;2022-07-18T13:09:22;2.40;;;2.30;;
1220;SDS011;600;48.044;7.878;2022-07-18T13:11:49;2.50;;;2.30;;
1220;SDS011;600;48.044;7.878;2022-07-18T13:14:16;2.50;;;2.20;;
1220;SDS011;600;48.044;7.878;2022-07-18T13:16:45;2.03;;;1.83;;
1220;SDS011;600;48.044;7.878;2022-07-18T13:19:15;2.67;;;2.47;;
1220;SDS011;600;48.044;7.878;2022-07-18T13:21:43;3.33;;;2.47;;
1220;SDS011;600;48.044;7.878;2022-07-18T13:24:11;3.23;;;2.40;;
1220;SDS011;600;48.044;7.878;2022-07-18T13:26:38;2.27;;;2.10;;
1220;SDS011;600;48.044;7.878;2022-07-18T13:29:05;2.50;;;2.30;;
1220;SDS011;600;48.044;7.878;2022-07-18T13:31:32;2.60;;;2.40;;
1220;SDS011;600;48.044;7.878;2022-07-18T13:34:02;2.30;;;2.20;;
1220;SDS011;600;48.044;7.878;2022-07-18T13:43:28;3.30;;;2.43;;
1220;SDS011;600;48.044;7.878;2022-07-18T13:45:55;3.23;;;2.50;;
1220;SDS011;600;48.044;7.878;2022-07-18T13:48:22;2.83;;;2.63;;
1220;SDS011;600;48.044;7.878;2022-07-18T13:50:50;2.70;;;2.50;;
1220;SDS011;600;48.044;7.878;2022-07-18T13:53:17;3.10;;;2.50;;
1220;SDS011;600;48.044;7.878;2022-07-18T13:55:43;2.30;;;2.20;;
1220;SDS011;600;48.044;7.878;2022-07-18T13:58:10;2.90;;;2.67;;
1220;SDS011;600;48.044;7.878;2022-07-18T14:00:37;2.47;;;2.37;;
1220;SDS011;600;48.044;7.878;2022-07-18T14:03:04;2.93;;;2.60;;
1220;SDS011;600;48.044;7.878;2022-07-18T14:05:31;2.50;;;2.37;;
1220;SDS011;600;48.044;7.878;2022-07-18T14:07:59;2.63;;;2.50;;
1220;SDS011;600;48.044;7.878;2022-07-18T14:10:26;2.40;;;2.20;;
1220;SDS011;600;48.044;7.878;2022-07-18T14:12:53;3.13;;;2.93;;
1220;SDS011;600;48.044;7.878;2022-07-18T14:15:20;3.60;;;2.70;;
1220;SDS011;600;48.044;7.878;2022-07-18T14:17:46;4.13;;;2.80;;
1220;SDS011;600;48.044;7.878;2022-07-18T14:20:13;2.40;;;2.30;;
1220;SDS011;600;48.044;7.878;2022-07-18T14:22:41;3.00;;;2.80;;
1220;SDS011;600;48.044;7.878;2022-07-18T14:25:10;3.03;;;2.73;;
1220;SDS011;600;48.044;7.878;2022-07-18T14:27:39;3.80;;;2.43;;
1220;SDS011;600;48.044;7.878;2022-07-18T14:30:07;16.10;;;2.80;;
1220;SDS011;600;48.044;7.878;2022-07-18T14:32:35;3.13;;;2.77;;
1220;SDS011;600;48.044;7.878;2022-07-18T14:35:02;3.07;;;2.63;;
1220;SDS011;600;48.044;7.878;2022-07-18T14:37:29;2.50;;;2.30;;
1220;SDS011;600;48.044;7.878;2022-07-18T14:39:56;2.90;;;2.70;;
1220;SDS011;600;48.044;7.878;2022-07-18T14:42:24;3.00;;;2.73;;
1220;SDS011;600;48.044;7.878;2022-07-18T14:44:52;3.30;;;3.00;;
1220;SDS011;600;48.044;7.878;2022-07-18T14:47:19;3.13;;;2.93;;
1220;SDS011;600;48.044;7.878;2022-07-18T14:49:46;2.93;;;2.63;;
1220;SDS011;600;48.044;7.878;2022-07-18T14:52:13;2.53;;;2.43;;
1220;SDS011;600;48.044;7.878;2022-07-18T14:54:40;2.80;;;2.60;;
1220;SDS011;600;48.044;7.878;2022-07-18T14:57:07;3.80;;;2.70;;
1220;SDS011;600;48.044;7.878;2022-07-18T14:59:35;3.50;;;2.70;;
1220;SDS011;600;48.044;7.878;2022-07-18T15:02:02;2.93;;;2.70;;
1220;SDS011;600;48.044;7.878;2022-07-18T15:04:31;3.43;;;3.13;;
1220;SDS011;600;48.044;7.878;2022-07-18T15:06:57;3.23;;;3.03;;
1220;SDS011;600;48.044;7.878;2022-07-18T15:09:24;3.40;;;3.10;;
1220;SDS011;600;48.044;7.878;2022-07-18T15:11:51;4.70;;;3.87;;
1220;SDS011;600;48.044;7.878;2022-07-18T15:14:18;3.80;;;3.50;;
1220;SDS011;600;48.044;7.878;2022-07-18T15:16:46;3.83;;;3.60;;
1220;SDS011;600;48.044;7.878;2022-07-18T15:19:13;4.60;;;4.20;;
1220;SDS011;600;48.044;7.878;2022-07-18T15:21:40;4.80;;;4.40;;
1220;SDS011;600;48.044;7.878;2022-07-18T15:24:06;4.53;;;4.13;;
1220;SDS011;600;48.044;7.878;2022-07-18T15:26:33;6.27;;;4.20;;
1220;SDS011;600;48.044;7.878;2022-07-18T15:29:00;5.43;;;4.57;;
1220;SDS011;600;48.044;7.878;2022-07-18T15:31:27;5.23;;;4.83;;
1220;SDS011;600;48.044;7.878;2022-07-18T15:33:56;5.60;;;5.10;;
1220;SDS011;600;48.044;7.878;2022-07-18T15:36:23;5.47;;;4.97;;
1220;SDS011;600;48.044;7.878;2022-07-18T15:38:49;5.60;;;5.00;;
1220;SDS011;600;48.044;7.878;2022-07-18T15:44:58;5.40;;;4.90;;
1220;SDS011;600;48.044;7.878;2022-07-18T15:54:10;5.77;;;4.27;;
1220;SDS011;600;48.044;7.878;2022-07-18T15:56:37;5.10;;;4.60;;
1220;SDS011;600;48.044;7.878;2022-07-18T15:59:03;7.77;;;4.37;;
1220;SDS011;600;48.044;7.878;2022-07-18T16:01:30;6.30;;;4.40;;
1220;SDS011;600;48.044;7.878;2022-07-18T16:03:57;7.73;;;4.50;;
1220;SDS011;600;48.044;7.878;2022-07-18T16:06:24;5.53;;;5.00;;
1220;SDS011;600;48.044;7.878;2022-07-18T16:08:51;4.13;;;3.83;;
1220;SDS011;600;48.044;7.878;2022-07-18T16:11:19;5.43;;;4.87;;
1220;SDS011;600;48.044;7.878;2022-07-18T16:13:46;4.40;;;3.90;;
1220;SDS011;600;48.044;7.878;2022-07-18T16:16:13;3.50;;;3.20;;
1220;SDS011;600;48.044;7.878;2022-07-18T16:18:39;3.57;;;3.27;;
1220;SDS011;600;48.044;7.878;2022-07-18T16:21:06;5.80;;;3.90;;
1220;SDS011;600;48.044;7.878;2022-07-18T16:23:33;4.13;;;3.33;;
1220;SDS011;600;48.044;7.878;2022-07-18T16:26:00;3.93;;;3.20;;
1220;SDS011;600;48.044;7.878;2022-07-18T16:28:28;5.13;;;3.57;;
1220;SDS011;600;48.044;7.878;2022-07-18T16:30:54;3.07;;;2.40;;
1220;SDS011;600;48.044;7.878;2022-07-18T16:33:21;3.00;;;2.80;;
1220;SDS011;600;48.044;7.878;2022-07-18T16:35:48;3.33;;;2.80;;
1220;SDS011;600;48.044;7.878;2022-07-18T16:38:14;2.90;;;2.70;;
1220;SDS011;600;48.044;7.878;2022-07-18T16:40:41;3.80;;;2.80;;
1220;SDS011;600;48.044;7.878;2022-07-18T16:43:09;4.87;;;2.80;;
1220;SDS011;600;48.044;7.878;2022-07-18T16:45:37;3.27;;;2.73;;
1220;SDS011;600;48.044;7.878;2022-07-18T16:48:05;2.70;;;2.50;;
1220;SDS011;600;48.044;7.878;2022-07-18T16:50:32;3.53;;;2.60;;
1220;SDS011;600;48.044;7.878;2022-07-18T16:53:00;2.80;;;2.60;;
1220;SDS011;600;48.044;7.878;2022-07-18T16:55:27;2.93;;;2.50;;
1220;SDS011;600;48.044;7.878;2022-07-18T16:57:54;6.50;;;3.03;;
1220;SDS011;600;48.044;7.878;2022-07-18T17:00:22;2.80;;;2.60;;
1220;SDS011;600;48.044;7.878;2022-07-18T17:02:50;8.50;;;2.97;;
1220;SDS011;600;48.044;7.878;2022-07-18T17:05:18;2.47;;;2.27;;
1220;SDS011;600;48.044;7.878;2022-07-18T17:07:44;2.70;;;2.50;;
1220;SDS011;600;48.044;7.878;2022-07-18T17:10:12;2.47;;;2.27;;
1220;SDS011;600;48.044;7.878;2022-07-18T17:12:40;2.20;;;2.10;;
1220;SDS011;600;48.044;7.878;2022-07-18T17:15:08;4.97;;;3.50;;
1220;SDS011;600;48.044;7.878;2022-07-18T17:17:35;5.70;;;3.17;;
1220;SDS011;600;48.044;7.878;2022-07-18T17:20:05;4.73;;;2.80;;
1220;SDS011;600;48.044;7.878;2022-07-18T17:22:32;3.50;;;2.80;;
1220;SDS011;600;48.044;7.878;2022-07-18T17:24:59;4.40;;;3.30;;
1220;SDS011;600;48.044;7.878;2022-07-18T17:27:27;2.67;;;2.13;;
1220;SDS011;600;48.044;7.878;2022-07-18T17:29:54;2.87;;;2.63;;
1220;SDS011;600;48.044;7.878;2022-07-18T17:32:26;3.70;;;2.70;;
1220;SDS011;600;48.044;7.878;2022-07-18T17:34:55;2.87;;;2.67;;
1220;SDS011;600;48.044;7.878;2022-07-18T17:37:23;2.53;;;2.37;;
1220;SDS011;600;48.044;7.878;2022-07-18T17:39:52;2.30;;;2.20;;
1220;SDS011;600;48.044;7.878;2022-07-18T17:42:19;2.13;;;2.03;;
1220;SDS011;600;48.044;7.878;2022-07-18T17:44:48;2.90;;;2.70;;
1220;SDS011;600;48.044;7.878;2022-07-18T17:47:15;2.80;;;2.60;;
1220;SDS011;600;48.044;7.878;2022-07-18T17:49:43;3.50;;;2.50;;
1220;SDS011;600;48.044;7.878;2022-07-18T17:52:10;3.07;;;2.60;;
1220;SDS011;600;48.044;7.878;2022-07-18T17:54:38;2.20;;;2.10;;
1220;SDS011;600;48.044;7.878;2022-07-18T17:57:06;2.10;;;2.00;;
1220;SDS011;600;48.044;7.878;2022-07-18T17:59:33;2.93;;;2.40;;
1220;SDS011;600;48.044;7.878;2022-07-18T18:02:00;2.70;;;2.50;;
1220;SDS011;600;48.044;7.878;2022-07-18T18:04:27;2.80;;;2.60;;
1220;SDS011;600;48.044;7.878;2022-07-18T18:06:53;2.43;;;2.30;;
1220;SDS011;600;48.044;7.878;2022-07-18T18:09:20;3.17;;;2.87;;
1220;SDS011;600;48.044;7.878;2022-07-18T18:11:48;2.40;;;2.30;;
1220;SDS011;600;48.044;7.878;2022-07-18T18:14:15;2.70;;;2.50;;
1220;SDS011;600;48.044;7.878;2022-07-18T18:16:43;2.80;;;2.60;;
1220;SDS011;600;48.044;7.878;2022-07-18T18:19:12;2.30;;;2.17;;
1220;SDS011;600;48.044;7.878;2022-07-18T18:21:39;2.30;;;2.20;;
1220;SDS011;600;48.044;7.878;2022-07-18T18:24:06;2.27;;;2.10;;
1220;SDS011;600;48.044;7.878;2022-07-18T18:26:33;2.40;;;2.30;;
1220;SDS011;600;48.044;7.878;2022-07-18T18:29:01;2.57;;;2.37;;
1220;SDS011;600;48.044;7.878;2022-07-18T18:31:28;1.93;;;1.83;;
1220;SDS011;600;48.044;7.878;2022-07-18T18:33:55;2.30;;;2.20;;
1220;SDS011;600;48.044;7.878;2022-07-18T18:36:22;2.80;;;2.60;;
1220;SDS011;600;48.044;7.878;2022-07-18T18:39:09;2.80;;;2.60;;
1220;SDS011;600;48.044;7.878;2022-07-18T18:41:36;2.90;;;2.70;;
1220;SDS011;600;48.044;7.878;2022-07-18T18:44:04;2.80;;;2.60;;
1220;SDS011;600;48.044;7.878;2022-07-18T18:46:31;3.33;;;3.10;;
1220;SDS011;600;48.044;7.878;2022-07-18T18:48:58;2.30;;;2.10;;
1220;SDS011;600;48.044;7.878;2022-07-18T18:51:25;2.50;;;2.30;;
1220;SDS011;600;48.044;7.878;2022-07-18T18:53:52;3.30;;;3.00;;
1220;SDS011;600;48.044;7.878;2022-07-18T18:56:19;5.10;;;3.13;;
1220;SDS011;600;48.044;7.878;2022-07-18T18:58:46;3.80;;;3.30;;
1220;SDS011;600;48.044;7.878;2022-07-18T19:01:14;3.63;;;3.17;;
1220;SDS011;600;48.044;7.878;2022-07-18T19:03:41;3.27;;;3.03;;
1220;SDS011;600;48.044;7.878;2022-07-18T19:06:08;3.00;;;2.80;;
1220;SDS011;600;48.044;7.878;2022-07-18T19:08:35;3.43;;;2.67;;
1220;SDS011;600;48.044;7.878;2022-07-18T19:11:02;2.57;;;2.37;;
1220;SDS011;600;48.044;7.878;2022-07-18T19:13:29;2.50;;;2.30;;
1220;SDS011;600;48.044;7.878;2022-07-18T19:15:56;4.03;;;2.77;;
1220;SDS011;600;48.044;7.878;2022-07-18T19:18:24;3.17;;;2.90;;
1220;SDS011;600;48.044;7.878;2022-07-18T19:20:50;2.83;;;2.73;;
1220;SDS011;600;48.044;7.878;2022-07-18T19:23:18;2.53;;;2.33;;
1220;SDS011;600;48.044;7.878;2022-07-18T19:25:45;4.60;;;2.80;;
1220;SDS011;600;48.044;7.878;2022-07-18T19:28:12;2.97;;;2.77;;
1220;SDS011;600;48.044;7.878;2022-07-18T19:30:39;3.20;;;2.90;;
1220;SDS011;600;48.044;7.878;2022-07-18T19:33:06;2.43;;;2.33;;
1220;SDS011;600;48.044;7.878;2022-07-18T19:35:34;2.97;;;2.77;;
1220;SDS011;600;48.044;7.878;2022-07-18T19:38:00;2.93;;;2.70;;
1220;SDS011;600;48.044;7.878;2022-07-18T19:40:27;3.47;;;3.17;;
1220;SDS011;600;48.044;7.878;2022-07-18T19:42:54;3.33;;;2.70;;
1220;SDS011;600;48.044;7.878;2022-07-18T19:45:21;3.00;;;2.80;;
1220;SDS011;600;48.044;7.878;2022-07-18T19:47:48;2.70;;;2.50;;
1220;SDS011;600;48.044;7.878;2022-07-18T19:50:14;3.10;;;2.83;;
1220;SDS011;600;48.044;7.878;2022-07-18T19:52:43;2.60;;;2.40;;
1220;SDS011;600;48.044;7.878;2022-07-18T19:55:09;3.20;;;3.00;;
1220;SDS011;600;48.044;7.878;2022-07-18T19:57:36;6.50;;;3.00;;
1220;SDS011;600;48.044;7.878;2022-07-18T20:00:03;4.83;;;3.67;;
1220;SDS011;600;48.044;7.878;2022-07-18T20:02:31;3.07;;;2.97;;
1220;SDS011;600;48.044;7.878;2022-07-18T20:04:58;4.50;;;2.63;;
1220;SDS011;600;48.044;7.878;2022-07-18T20:07:25;22.30;;;7.70;;
1220;SDS011;600;48.044;7.878;2022-07-18T20:09:54;6.40;;;4.30;;
1220;SDS011;600;48.044;7.878;2022-07-18T20:12:20;3.40;;;3.20;;
1220;SDS011;600;48.044;7.878;2022-07-18T20:14:47;4.20;;;3.90;;
1220;SDS011;600;48.044;7.878;2022-07-18T20:17:14;4.00;;;3.53;;
1220;SDS011;600;48.044;7.878;2022-07-18T20:19:41;6.00;;;3.50;;
1220;SDS011;600;48.044;7.878;2022-07-18T20:22:08;6.73;;;3.87;;
1220;SDS011;600;48.044;7.878;2022-07-18T20:24:34;4.00;;;3.70;;
1220;SDS011;600;48.044;7.878;2022-07-18T20:27:02;4.00;;;3.70;;
1220;SDS011;600;48.044;7.878;2022-07-18T20:29:29;5.67;;;4.13;;
1220;SDS011;600;48.044;7.878;2022-07-18T20:31:56;4.63;;;4.23;;
1220;SDS011;600;48.044;7.878;2022-07-18T20:34:23;4.60;;;4.10;;
1220;SDS011;600;48.044;7.878;2022-07-18T20:36:50;4.17;;;3.87;;
1220;SDS011;600;48.044;7.878;2022-07-18T20:39:17;4.03;;;3.70;;
1220;SDS011;600;48.044;7.878;2022-07-18T20:41:43;5.00;;;4.60;;
1220;SDS011;600;48.044;7.878;2022-07-18T20:44:11;5.00;;;4.60;;
1220;SDS011;600;48.044;7.878;2022-07-18T20:46:38;4.43;;;4.13;;
1220;SDS011;600;48.044;7.878;2022-07-18T20:49:05;3.90;;;3.60;;
1220;SDS011;600;48.044;7.878;2022-07-18T20:51:32;6.60;;;4.23;;
1220;SDS011;600;48.044;7.878;2022-07-18T20:53:58;6.07;;;4.27;;
1220;SDS011;600;48.044;7.878;2022-07-18T20:56:25;5.00;;;4.60;;
1220;SDS011;600;48.044;7.878;2022-07-18T20:58:52;4.03;;;3.73;;
1220;SDS011;600;48.044;7.878;2022-07-18T21:01:20;4.40;;;4.10;;
1220;SDS011;600;48.044;7.878;2022-07-18T21:03:47;4.90;;;4.47;;
1220;SDS011;600;48.044;7.878;2022-07-18T21:06:14;3.47;;;3.17;;
1220;SDS011;600;48.044;7.878;2022-07-18T21:08:41;4.63;;;4.00;;
1220;SDS011;600;48.044;7.878;2022-07-18T21:11:07;3.87;;;3.57;;
1220;SDS011;600;48.044;7.878;2022-07-18T21:13:34;4.17;;;3.90;;
1220;SDS011;600;48.044;7.878;2022-07-18T21:16:01;4.60;;;3.93;;
1220;SDS011;600;48.044;7.878;2022-07-18T21:18:29;4.40;;;4.00;;
1220;SDS011;600;48.044;7.878;2022-07-18T21:20:56;4.57;;;4.17;;
1220;SDS011;600;48.044;7.878;2022-07-18T21:23:23;3.53;;;3.33;;
1220;SDS011;600;48.044;7.878;2022-07-18T21:25:50;6.37;;;3.97;;
1220;SDS011;600;48.044;7.878;2022-07-18T21:28:17;4.53;;;4.17;;
1220;SDS011;600;48.044;7.878;2022-07-18T21:30:44;4.50;;;4.10;;
1220;SDS011;600;48.044;7.878;2022-07-18T21:33:11;4.17;;;3.80;;
1220;SDS011;600;48.044;7.878;2022-07-18T21:35:39;3.97;;;3.67;;
1220;SDS011;600;48.044;7.878;2022-07-18T21:38:06;4.10;;;3.80;;
1220;SDS011;600;48.044;7.878;2022-07-18T21:40:33;4.40;;;4.10;;
1220;SDS011;600;48.044;7.878;2022-07-18T21:43:00;4.33;;;3.97;;
1220;SDS011;600;48.044;7.878;2022-07-18T21:45:27;3.97;;;3.67;;
1220;SDS011;600;48.044;7.878;2022-07-18T21:47:54;4.20;;;3.90;;
1220;SDS011;600;48.044;7.878;2022-07-18T21:50:21;4.47;;;4.07;;
1220;SDS011;600;48.044;7.878;2022-07-18T21:52:49;3.63;;;3.30;;
1220;SDS011;600;48.044;7.878;2022-07-18T21:55:15;4.10;;;3.70;;
1220;SDS011;600;48.044;7.878;2022-07-18T21:57:42;5.53;;;3.47;;
1220;SDS011;600;48.044;7.878;2022-07-18T22:00:10;4.20;;;3.90;;
1220;SDS011;600;48.044;7.878;2022-07-18T22:02:38;4.47;;;4.17;;
1220;SDS011;600;48.044;7.878;2022-07-18T22:05:06;4.20;;;3.80;;
1220;SDS011;600;48.044;7.878;2022-07-18T22:07:33;4.63;;;4.23;;
1220;SDS011;600;48.044;7.878;2022-07-18T22:10:02;3.57;;;3.37;;
1220;SDS011;600;48.044;7.878;2022-07-18T22:12:29;4.37;;;3.93;;
1220;SDS011;600;48.044;7.878;2022-07-18T22:14:56;3.73;;;3.40;;
1220;SDS011;600;48.044;7.878;2022-07-18T22:17:23;4.17;;;3.87;;
1220;SDS011;600;48.044;7.878;2022-07-18T22:19:50;3.23;;;3.03;;
1220;SDS011;600;48.044;7.878;2022-07-18T22:22:17;3.80;;;3.50;;
1220;SDS011;600;48.044;7.878;2022-07-18T22:24:43;4.73;;;3.43;;
1220;SDS011;600;48.044;7.878;2022-07-18T22:27:11;4.20;;;3.77;;
1220;SDS011;600;48.044;7.878;2022-07-18T22:29:38;3.33;;;3.10;;
1220;SDS011;600;48.044;7.878;2022-07-18T22:32:05;3.70;;;3.47;;
1220;SDS011;600;48.044;7.878;2022-07-18T22:34:32;3.33;;;3.13;;
1220;SDS011;600;48.044;7.878;2022-07-18T22:36:59;3.30;;;3.10;;
1220;SDS011;600;48.044;7.878;2022-07-18T22:39:25;3.50;;;3.20;;
1220;SDS011;600;48.044;7.878;2022-07-18T22:41:52;4.70;;;3.47;;
1220;SDS011;600;48.044;7.878;2022-07-18T22:44:20;3.77;;;3.10;;
1220;SDS011;600;48.044;7.878;2022-07-18T22:46:47;3.50;;;3.30;;
1220;SDS011;600;48.044;7.878;2022-07-18T22:49:14;3.30;;;3.00;;